Terminal Aerodrome Forecast
Issued by NWS

Home | Current Version | Previous Version | Text Only | Print | Product List | Glossary On
Versions: 1 2 3 4 5 6 7 8 9 10 11 12 13 14 15 16 17 18
000
FTUS46 KMTR 021700
TAFOAK
TAF
KOAK 021735Z 0218/0324 26006KT P6SM FEW010 SCT016 BKN021
     FM021900 26009KT P6SM FEW012 SCT022
     FM022200 26016G22KT P6SM FEW025
     FM030400 27011KT P6SM BKN015
     FM030800 26007KT P6SM OVC009
     FM031400 24008KT P6SM BKN012 OVC020=

USA.gov is the U.S. government's official web portal to all federal, state and local government web resources and services.